Praia Da Marosa — ECDZ — position and weather

sailwx.info

Track history (hours):
 
Tides and Currents Weather Stations Pressure Air Temp Water Temp Dewpoint Dewpoint Depression Visibility Wind Speed Wind Dir Waves Ship Positions

Praia Da Marosa

Last reported at 2018-May-14 05:29 UTC. Time now 2018-May-25 22:46 UTC.
Position N 43°45' W 006°20'.
Warning: this ship's position is 11 days out of date.

Length 31 m.

Type: Fishing. MMSI: 224097970.

Date/timePositionNaut miles runAvg speedWind from/ knotsBaromVisibWave heightAir tempDewpointWater temp
2018-May-14 05:29N 43°45' W 006°20'2 3.9
2018-May-14 04:59N 43°44' W 006°18'  
2018-May-10 21:51N 43°42' W 007°11'3 6.0
2018-May-10 21:17N 43°41' W 007°15'4 1.1
2018-May-10 17:45N 43°43' W 007°19'2 9.0
2018-May-10 17:30N 43°45' W 007°18'4 3.4
2018-May-10 16:21N 43°49' W 007°17'1 3.1
2018-May-10 15:58N 43°50' W 007°17'1 3.1
2018-May-10 15:29N 43°52' W 007°17'2 3.1
2018-May-10 14:52N 43°54' W 007°17'9 4.5
2018-May-10 12:55N 44°01' W 007°24'2 4.4
2018-May-10 12:30N 44°02' W 007°26'12 3.3
2018-May-10 08:51N 44°01' W 007°42'0 0.3
2018-May-10 08:29N 44°01' W 007°42'2 3.1
2018-May-10 08:00N 44°01' W 007°44'2 3.1
2018-May-10 07:30N 44°01' W 007°47'2 3.1
2018-May-10 06:58N 44°01' W 007°49'15 0.7
2018-May-09 07:36N 43°51' W 008°05'16 0.8
2018-May-08 11:21N 44°01' W 007°47'1 3.2
2018-May-08 10:56N 44°01' W 007°45'1 3.1
2018-May-08 10:29N 44°01' W 007°43'2 3.7
2018-May-08 09:59N 44°02' W 007°41'0 0.5
2018-May-08 09:26N 44°02' W 007°41'2 3.1
2018-May-08 08:47N 44°03' W 007°38'1 3.1
2018-May-08 08:30N 44°03' W 007°37'2 3.1
2018-May-08 08:00N 44°03' W 007°35'2 3.1
2018-May-08 07:15N 44°03' W 007°32'1 3.1
2018-May-08 06:52N 44°03' W 007°30'2 3.1
2018-May-08 06:19N 44°03' W 007°28'1 3.2
2018-May-08 05:57N 44°03' W 007°26'1 1.0
2018-May-08 04:48N 44°02' W 007°27'1 3.1
2018-May-08 04:29N 44°02' W 007°29'2 3.0
2018-May-08 03:56N 44°02' W 007°31'1 3.2
2018-May-08 03:29N 44°02' W 007°33'2 3.2
2018-May-08 03:00N 44°02' W 007°35'2 3.2
2018-May-08 02:28N 44°02' W 007°37'2 3.8
2018-May-08 01:59N 44°02' W 007°40'1 1.5
2018-May-08 01:29N 44°02' W 007°41'2 3.1
2018-May-08 00:59N 44°01' W 007°43'2 3.1
2018-May-08 00:28N 44°00' W 007°45'2 3.1
2018-May-07 23:58N 44°00' W 007°47'5 3.0
2018-May-07 22:16N 44°00' W 007°54'2 1.3
2018-May-07 21:00N 44°02' W 007°56'2 3.1
2018-May-07 20:30N 44°01' W 007°54'2 3.1
2018-May-07 20:01N 44°01' W 007°52'2 3.1
2018-May-07 19:28N 44°01' W 007°50'2 3.1
2018-May-07 18:58N 44°01' W 007°48'1 3.1
2018-May-07 18:29N 44°01' W 007°45'2 3.2
2018-May-07 18:00N 44°01' W 007°43'5 3.2
2018-May-07 16:20N 44°02' W 007°36'1 3.1
2018-May-07 15:56N 44°02' W 007°34'1 3.1
2018-May-07 15:28N 44°02' W 007°32'2 3.2
2018-May-07 14:59N 44°02' W 007°30'2 3.2
2018-May-07 14:18N 44°02' W 007°27'1 3.0
2018-May-07 13:57N 44°02' W 007°26'1 3.1
2018-May-07 13:30N 44°02' W 007°24'5 1.6
2018-May-07 10:34N 44°02' W 007°30'1 3.1
2018-May-07 10:20N 44°02' W 007°31'2 3.1
2018-May-07 09:44N 44°02' W 007°34'1 3.1
2018-May-07 09:22N 44°03' W 007°35'1 3.3
2018-May-07 09:00N 44°03' W 007°37'2 3.1
2018-May-07 08:27N 44°02' W 007°35'1 2.0
2018-May-07 07:54N 44°02' W 007°33'1 3.2
2018-May-07 07:29N 44°02' W 007°31'2 3.2
2018-May-07 07:00N 44°02' W 007°29'2 3.2
2018-May-07 06:21N 44°02' W 007°26'1 3.1
2018-May-07 06:00N 44°02' W 007°25'8 3.4
2018-May-07 03:48N 43°60' W 007°15'1 2.5
2018-May-07 03:30N 43°59' W 007°15'2 3.2
2018-May-07 02:58N 43°58' W 007°16'1 3.2
2018-May-07 02:30N 43°56' W 007°17'2 3.2
2018-May-07 02:00N 43°55' W 007°18'2 3.2
2018-May-07 01:30N 43°53' W 007°19'2 3.1
2018-May-07 01:00N 43°52' W 007°19'2 3.1
2018-May-07 00:30N 43°50' W 007°20'2 3.1
2018-May-07 00:00N 43°49' W 007°20'2 3.1
2018-May-06 23:30N 43°47' W 007°19'2 3.5
2018-May-06 23:00N 43°46' W 007°18'  
2018-May-04 16:00N 43°41' W 007°20'5 9.3
2018-May-04 15:30N 43°46' W 007°20'5 9.2
2018-May-04 15:00N 43°51' W 007°20'5 9.5
2018-May-04 14:30N 43°55' W 007°20'5 9.1
2018-May-04 13:58N 44°00' W 007°20'3 1.5
2018-May-04 12:19N 44°02' W 007°22'1 3.1
2018-May-04 12:00N 44°03' W 007°23'2 3.1
2018-May-04 11:23N 44°03' W 007°26'1 3.1
2018-May-04 10:59N 44°03' W 007°28'2 3.1
2018-May-04 10:24N 44°03' W 007°30'1 3.1
2018-May-04 09:58N 44°03' W 007°32'2 3.1
2018-May-04 09:27N 44°03' W 007°34'2 3.6
2018-May-04 09:00N 44°03' W 007°36'1 2.4
2018-May-04 08:29N 44°03' W 007°35'1 1.9
2018-May-04 07:52N 44°03' W 007°33'1 3.1
2018-May-04 07:30N 44°03' W 007°32'4 3.2
2018-May-04 06:10N 44°03' W 007°26'2 3.2
2018-May-04 05:40N 44°03' W 007°24'  
Track history (hours):
 
Tides and Currents Weather Stations Pressure Air Temp Water Temp Dewpoint Dewpoint Depression Visibility Wind Speed Wind Dir Waves Ship Positions

Praia Da Marosa

Last reported at 2018-May-14 05:29 UTC. Time now 2018-May-25 22:46 UTC.
Position N 43°45' W 006°20'.
Warning: this ship's position is 11 days out of date.

Length 31 m.

Type: Fishing. MMSI: 224097970.

Date/timePositionNaut miles runAvg speedWind from/ knotsBaromVisibWave heightAir tempDewpointWater temp
2018-May-14 05:29N 43°45' W 006°20'2 3.9
2018-May-14 04:59N 43°44' W 006°18'  
2018-May-10 21:51N 43°42' W 007°11'3 6.0
2018-May-10 21:17N 43°41' W 007°15'4 1.1
2018-May-10 17:45N 43°43' W 007°19'2 9.0
2018-May-10 17:30N 43°45' W 007°18'4 3.4
2018-May-10 16:21N 43°49' W 007°17'1 3.1
2018-May-10 15:58N 43°50' W 007°17'1 3.1
2018-May-10 15:29N 43°52' W 007°17'2 3.1
2018-May-10 14:52N 43°54' W 007°17'9 4.5
2018-May-10 12:55N 44°01' W 007°24'2 4.4
2018-May-10 12:30N 44°02' W 007°26'12 3.3
2018-May-10 08:51N 44°01' W 007°42'0 0.3
2018-May-10 08:29N 44°01' W 007°42'2 3.1
2018-May-10 08:00N 44°01' W 007°44'2 3.1
2018-May-10 07:30N 44°01' W 007°47'2 3.1
2018-May-10 06:58N 44°01' W 007°49'15 0.7
2018-May-09 07:36N 43°51' W 008°05'16 0.8
2018-May-08 11:21N 44°01' W 007°47'1 3.2
2018-May-08 10:56N 44°01' W 007°45'1 3.1
2018-May-08 10:29N 44°01' W 007°43'2 3.7
2018-May-08 09:59N 44°02' W 007°41'0 0.5
2018-May-08 09:26N 44°02' W 007°41'2 3.1
2018-May-08 08:47N 44°03' W 007°38'1 3.1
2018-May-08 08:30N 44°03' W 007°37'2 3.1
2018-May-08 08:00N 44°03' W 007°35'2 3.1
2018-May-08 07:15N 44°03' W 007°32'1 3.1
2018-May-08 06:52N 44°03' W 007°30'2 3.1
2018-May-08 06:19N 44°03' W 007°28'1 3.2
2018-May-08 05:57N 44°03' W 007°26'1 1.0
2018-May-08 04:48N 44°02' W 007°27'1 3.1
2018-May-08 04:29N 44°02' W 007°29'2 3.0
2018-May-08 03:56N 44°02' W 007°31'1 3.2
2018-May-08 03:29N 44°02' W 007°33'2 3.2
2018-May-08 03:00N 44°02' W 007°35'2 3.2
2018-May-08 02:28N 44°02' W 007°37'2 3.8
2018-May-08 01:59N 44°02' W 007°40'1 1.5
2018-May-08 01:29N 44°02' W 007°41'2 3.1
2018-May-08 00:59N 44°01' W 007°43'2 3.1
2018-May-08 00:28N 44°00' W 007°45'2 3.1
2018-May-07 23:58N 44°00' W 007°47'5 3.0
2018-May-07 22:16N 44°00' W 007°54'2 1.3
2018-May-07 21:00N 44°02' W 007°56'2 3.1
2018-May-07 20:30N 44°01' W 007°54'2 3.1
2018-May-07 20:01N 44°01' W 007°52'2 3.1
2018-May-07 19:28N 44°01' W 007°50'2 3.1
2018-May-07 18:58N 44°01' W 007°48'1 3.1
2018-May-07 18:29N 44°01' W 007°45'2 3.2
2018-May-07 18:00N 44°01' W 007°43'5 3.2
2018-May-07 16:20N 44°02' W 007°36'1 3.1
2018-May-07 15:56N 44°02' W 007°34'1 3.1
2018-May-07 15:28N 44°02' W 007°32'2 3.2
2018-May-07 14:59N 44°02' W 007°30'2 3.2
2018-May-07 14:18N 44°02' W 007°27'1 3.0
2018-May-07 13:57N 44°02' W 007°26'1 3.1
2018-May-07 13:30N 44°02' W 007°24'5 1.6
2018-May-07 10:34N 44°02' W 007°30'1 3.1
2018-May-07 10:20N 44°02' W 007°31'2 3.1
2018-May-07 09:44N 44°02' W 007°34'1 3.1
2018-May-07 09:22N 44°03' W 007°35'1 3.3
2018-May-07 09:00N 44°03' W 007°37'2 3.1
2018-May-07 08:27N 44°02' W 007°35'1 2.0
2018-May-07 07:54N 44°02' W 007°33'1 3.2
2018-May-07 07:29N 44°02' W 007°31'2 3.2
2018-May-07 07:00N 44°02' W 007°29'2 3.2
2018-May-07 06:21N 44°02' W 007°26'1 3.1
2018-May-07 06:00N 44°02' W 007°25'8 3.4
2018-May-07 03:48N 43°60' W 007°15'1 2.5
2018-May-07 03:30N 43°59' W 007°15'2 3.2
2018-May-07 02:58N 43°58' W 007°16'1 3.2
2018-May-07 02:30N 43°56' W 007°17'2 3.2
2018-May-07 02:00N 43°55' W 007°18'2 3.2
2018-May-07 01:30N 43°53' W 007°19'2 3.1
2018-May-07 01:00N 43°52' W 007°19'2 3.1
2018-May-07 00:30N 43°50' W 007°20'2 3.1
2018-May-07 00:00N 43°49' W 007°20'2 3.1
2018-May-06 23:30N 43°47' W 007°19'2 3.5
2018-May-06 23:00N 43°46' W 007°18'  
2018-May-04 16:00N 43°41' W 007°20'5 9.3
2018-May-04 15:30N 43°46' W 007°20'5 9.2
2018-May-04 15:00N 43°51' W 007°20'5 9.5
2018-May-04 14:30N 43°55' W 007°20'5 9.1
2018-May-04 13:58N 44°00' W 007°20'3 1.5
2018-May-04 12:19N 44°02' W 007°22'1 3.1
2018-May-04 12:00N 44°03' W 007°23'2 3.1
2018-May-04 11:23N 44°03' W 007°26'1 3.1
2018-May-04 10:59N 44°03' W 007°28'2 3.1
2018-May-04 10:24N 44°03' W 007°30'1 3.1
2018-May-04 09:58N 44°03' W 007°32'2 3.1
2018-May-04 09:27N 44°03' W 007°34'2 3.6
2018-May-04 09:00N 44°03' W 007°36'1 2.4
2018-May-04 08:29N 44°03' W 007°35'1 1.9
2018-May-04 07:52N 44°03' W 007°33'1 3.1
2018-May-04 07:30N 44°03' W 007°32'4 3.2
2018-May-04 06:10N 44°03' W 007°26'2 3.2
2018-May-04 05:40N 44°03' W 007°24'  

Dump ship's entire track history